Aérodrome :
LOGIN :

S'inscrire | Disclaimer

   EN    FR    IT 

 










Légende :    VFR   VFR Marginal   IFR   IFR Intensif   IFR Très Intensif
Visi : 
Plafond : 
>= 8 km
>= 3000ft
5 à 8 km
1000 à 3000 ft
1500m à 5 km
500 à 1000 ft
800 à 1500m
200 à 500 ft
< 800m
< 200 ft
Symboles :   Orages  Brouillard  Fortes neiges  Fortes précipitations  Vent > 20 kt
SIGMETs :   Divers  Orages  Givrage  Turbulence  Onde Orograph.  Cendres Volcan.







- Altitude de l'aérodrome : 781 ft
- Code IATA : SKP


LWSK - Skopje

DERNIER METAR :
  • 171900Z 04003KT CAVOK 03/M01 Q1021 NOSIG

METARs EXPIRÉS :
  • 171830Z 04003KT CAVOK 03/M02 Q1021 NOSIG
  • 171800Z 02002KT CAVOK 04/M02 Q1021 NOSIG
  • 171730Z 10002KT CAVOK 05/M02 Q1021 NOSIG
  • 171700Z 12004KT CAVOK 06/M02 Q1021 NOSIG
  • 171630Z 13002KT CAVOK 08/M04 Q1021 NOSIG

TAF COR TAF LWSK
Valide du 17 à 18h jusqu'au 18 à 18h UTC


171730Z 1718/1818 VRB02KT CAVOK
BECMG 1802/1804 5000 BR BKN020
BECMG 1808/1810 9999 NSW SCT050 BKN100
Pas de NOTAMs connus pour ce terrain.



MET'MAP, la Météo Aéronautique d'un coup d'oeil ! - Copyright ORBIFLY Décembre 2007 - Disclaimer

ORBIFLY MET'MAP TEAM :

Programmation & Développement : Alexandra Zaïnal
Conception & Développement : Baudouin d'Aumeries
Co-Programmation & Développement : Marc-Olivier Méhu
Soutien technique & logistique : Manuel Goepfert

Contact : metmap@orbifly.com




SOURCES & CREDITS :

   NOAA